Time;durP1;ratioP1;P1;durP2;ratioP2;P2;SDS_P1;SDS_P2;PMS_P1;PMS_P2;Temp;Humidity;BMP_temperature;BMP_pressure;BME280_temperature;BME280_humidity;BME280_pressure;Samples;Min_cycle;Max_cycle;Signal;HPM_P1;HPM_P2
2021/03/08 00:02:35;;;;;;;55.83;20.50;;;;;;;-1.34;77.67;97224.34;5083384;28;20039;-61
2021/03/08 00:05:20;;;;;;;48.35;20.52;;;;;;;-1.23;78.38;97247.56;5084241;28;20068;-61
2021/03/08 00:08:04;;;;;;;59.70;25.27;;;;;;;-1.03;79.10;97296.22;5082933;28;20074;-62
2021/03/08 00:10:48;;;;;;;49.72;21.10;;;;;;;-1.01;79.71;97266.84;5084285;28;20054;-61
2021/03/08 00:13:32;;;;;;;37.35;17.48;;;;;;;-1.35;80.57;97244.44;5082723;28;20043;-61
2021/03/08 00:16:16;;;;;;;74.85;25.33;;;;;;;-1.00;80.41;97279.34;5083801;28;20063;-62
2021/03/08 00:19:00;;;;;;;64.13;24.38;;;;;;;-0.96;79.39;97266.78;5083578;28;20038;-62
2021/03/08 00:21:46;;;;;;;50.78;22.73;;;;;;;-1.46;79.08;97183.19;5083468;28;20047;-61
2021/03/08 00:24:30;;;;;;;48.90;22.10;;;;;;;-1.35;77.94;97195.53;5083507;28;20098;-61
2021/03/08 00:27:14;;;;;;;39.72;18.45;;;;;;;-0.89;78.19;97237.34;5083863;28;20567;-61
2021/03/08 00:29:58;;;;;;;43.97;20.30;;;;;;;-1.21;78.43;97196.44;5043224;28;20439;-60
2021/03/08 00:32:42;;;;;;;62.97;22.33;;;;;;;-0.84;78.79;97242.72;5042146;28;20039;-60
2021/03/08 00:35:27;;;;;;;52.83;21.45;;;;;;;-0.92;78.71;97259.66;5042089;28;20158;-61
2021/03/08 00:38:11;;;;;;;58.28;24.65;;;;;;;-1.05;79.43;97216.88;5043895;28;20150;-61
2021/03/08 00:40:55;;;;;;;32.38;15.95;;;;;;;-1.15;76.82;97168.09;5042071;28;20071;-61
2021/03/08 00:43:39;;;;;;;36.03;16.80;;;;;;;-0.83;77.33;97236.97;5042116;28;20071;-62
2021/03/08 00:46:23;;;;;;;48.50;21.98;;;;;;;-1.22;77.79;97186.69;5043887;28;20577;-62
2021/03/08 00:49:07;;;;;;;46.92;20.00;;;;;;;-1.21;78.02;97180.97;5043674;28;20150;-61
2021/03/08 00:51:51;;;;;;;34.65;15.98;;;;;;;-1.02;77.69;97222.56;5043529;28;20508;-64
2021/03/08 00:54:35;;;;;;;41.15;18.08;;;;;;;-1.12;78.49;97221.88;5043532;28;20108;-64
2021/03/08 00:57:19;;;;;;;35.15;17.48;;;;;;;-1.09;78.55;97232.16;5043141;28;20072;-64
2021/03/08 01:00:05;;;;;;;35.58;16.08;;;;;;;-1.12;77.96;97211.03;5043144;28;20056;-65
2021/03/08 01:02:52;;;;;;;33.83;13.48;;;;;;;-1.32;78.59;97216.69;5043418;28;20111;-64
2021/03/08 01:05:36;;;;;;;27.98;14.80;;;;;;;-1.27;79.21;97194.91;5043403;28;20048;-65
2021/03/08 01:08:20;;;;;;;33.13;16.00;;;;;;;-1.73;79.65;97149.31;5044023;28;20098;-64
2021/03/08 01:11:04;;;;;;;35.58;16.25;;;;;;;-1.75;79.68;97126.22;5043756;28;20447;-65
2021/03/08 01:13:49;;;;;;;34.95;16.42;;;;;;;-1.70;80.32;97156.03;5043123;28;20091;-65
2021/03/08 01:16:33;;;;;;;47.22;18.65;;;;;;;-1.73;80.24;97135.72;5045088;28;20067;-64
2021/03/08 01:19:17;;;;;;;31.52;15.05;;;;;;;-1.52;80.68;97162.63;5046774;28;20100;-66
2021/03/08 01:22:01;;;;;;;36.17;15.20;;;;;;;-1.62;80.85;97166.25;5046353;28;20040;-63
2021/03/08 01:24:46;;;;;;;37.88;15.55;;;;;;;-1.84;81.83;97147.81;5046732;28;20047;-63
2021/03/08 01:27:30;;;;;;;34.78;14.85;;;;;;;-1.82;82.58;97175.44;5045499;28;20040;-64
2021/03/08 01:30:26;;;;;;;33.88;14.35;;;;;;;-2.38;83.21;97193.38;5045250;28;20083;-64
2021/03/08 01:33:11;;;;;;;35.72;15.43;;;;;;;-2.86;82.85;96980.19;5046395;28;20047;-65
2021/03/08 01:35:55;;;;;;;33.53;14.68;;;;;;;-1.80;82.94;97146.09;5046498;28;20051;-64
2021/03/08 01:38:39;;;;;;;36.83;16.60;;;;;;;-2.06;81.70;97076.97;5046752;28;20036;-65
2021/03/08 01:41:23;;;;;;;69.32;22.33;;;;;;;-2.32;80.36;97043.06;5046610;28;20044;-63
2021/03/08 01:44:07;;;;;;;49.53;21.55;;;;;;;-1.60;79.30;97166.78;5045929;28;20094;-64
2021/03/08 01:46:52;;;;;;;45.80;19.17;;;;;;;-1.56;78.46;97167.81;5046506;28;20503;-63
2021/03/08 01:49:37;;;;;;;37.50;17.25;;;;;;;-1.84;79.59;97126.09;5046654;28;20047;-65
2021/03/08 01:52:21;;;;;;;34.47;16.25;;;;;;;-1.89;80.63;97126.13;5045931;28;20073;-65
2021/03/08 01:55:06;;;;;;;34.38;17.42;;;;;;;-1.80;81.42;97151.53;5046174;28;20126;-63
2021/03/08 01:57:50;;;;;;;40.67;18.10;;;;;;;-2.65;81.03;97008.72;5045580;28;20113;-63
2021/03/08 02:00:36;;;;;;;55.10;22.00;;;;;;;-1.71;81.24;97149.78;5045818;28;20058;-65
2021/03/08 02:03:20;;;;;;;39.03;18.10;;;;;;;-2.58;81.03;96995.66;5046063;28;20063;-64
2021/03/08 02:06:05;;;;;;;41.47;19.00;;;;;;;-1.68;81.66;97132.13;5046592;28;20044;-64
2021/03/08 02:08:49;;;;;;;46.30;18.65;;;;;;;-2.99;82.05;96920.47;5045296;28;20579;-63
2021/03/08 02:11:36;;;;;;;61.78;30.02;;;;;;;-1.66;82.37;97130.72;5046074;28;20055;-65
2021/03/08 02:14:35;;;;;;;37.65;18.38;;;;;;;-1.59;81.56;97125.78;5045647;28;20582;-65
2021/03/08 02:17:26;;;;;;;43.70;19.77;;;;;;;-1.59;80.46;97125.78;5044035;28;20064;-64
2021/03/08 02:20:24;;;;;;;55.50;23.80;;;;;;;-1.66;80.02;97130.72;5045690;28;20519;-64
2021/03/08 02:23:46;;;;;;;50.97;20.95;;;;;;;-1.62;80.21;97131.78;5044952;28;20040;-64
2021/03/08 02:26:37;;;;;;;47.20;18.80;;;;;;;-2.12;80.27;97056.38;5044830;28;20048;-64
2021/03/08 02:29:28;;;;;;;39.95;17.38;;;;;;;-1.80;80.73;97134.44;5074328;28;20059;-63
2021/03/08 02:32:13;;;;;;;41.00;20.60;;;;;;;-1.90;80.70;97094.66;5084611;28;20062;-64
2021/03/08 02:35:04;;;;;;;31.60;14.98;;;;;;;-1.79;80.91;97125.22;5086096;28;20471;-64
2021/03/08 02:37:53;;;;;;;30.67;12.88;;;;;;;-2.04;81.75;97107.31;5084055;28;20085;-64
2021/03/08 02:40:53;;;;;;;34.63;14.70;;;;;;;-1.95;81.54;97126.47;5086148;28;20047;-65
2021/03/08 02:43:51;;;;;;;40.63;19.00;;;;;;;-1.95;80.21;97132.72;5084341;28;20043;-64
2021/03/08 02:46:37;;;;;;;43.53;20.75;;;;;;;-2.01;81.17;97114.06;5085393;28;20121;-64
2021/03/08 02:49:24;;;;;;;36.83;17.85;;;;;;;-1.91;81.30;97128.31;5085420;28;20047;-64
2021/03/08 02:52:10;;;;;;;38.88;18.35;;;;;;;-1.94;79.71;97115.34;5085401;28;20444;-63
2021/03/08 02:54:57;;;;;;;39.58;17.90;;;;;;;-2.52;80.37;97018.88;5085150;28;20112;-64
2021/03/08 02:57:44;;;;;;;44.40;18.27;;;;;;;-1.85;79.63;97119.03;5085281;28;20047;-63
2021/03/08 03:00:30;;;;;;;59.33;26.58;;;;;;;-2.51;79.90;97020.50;5085021;28;20065;-63
2021/03/08 03:03:15;;;;;;;47.28;19.30;;;;;;;-1.96;80.74;97120.22;5085160;28;20074;-63
2021/03/08 03:06:01;;;;;;;32.40;16.50;;;;;;;-1.84;80.32;97133.41;5085011;28;20181;-64
2021/03/08 03:08:47;;;;;;;33.33;15.07;;;;;;;-2.70;80.05;96994.44;5083751;28;20070;-64
2021/03/08 03:11:33;;;;;;;30.65;13.55;;;;;;;-1.97;80.74;97132.19;5083300;28;20516;-63
2021/03/08 03:14:19;;;;;;;36.28;18.75;;;;;;;-2.00;82.08;97124.63;5085331;28;20112;-63
2021/03/08 03:17:07;;;;;;;36.75;17.02;;;;;;;-2.16;81.97;97079.78;5082958;28;20161;-65
2021/03/08 03:19:54;;;;;;;36.10;17.95;;;;;;;-2.14;83.29;97123.72;5084590;28;20043;-64
2021/03/08 03:22:43;;;;;;;31.48;14.73;;;;;;;-2.08;82.81;97127.97;5083338;28;20082;-63
2021/03/08 03:25:30;;;;;;;26.90;13.15;;;;;;;-2.04;82.73;97134.44;5083241;28;20046;-64
2021/03/08 03:28:17;;;;;;;30.42;13.98;;;;;;;-2.48;81.74;97071.44;5079549;28;20031;-65
2021/03/08 03:31:03;;;;;;;30.58;14.23;;;;;;;-2.05;81.66;97119.25;5062922;28;20055;-64
2021/03/08 03:33:48;;;;;;;29.13;14.30;;;;;;;-2.00;80.36;97126.53;5064599;28;20163;-64
2021/03/08 03:36:34;;;;;;;29.60;14.15;;;;;;;-2.23;81.40;97119.97;5062578;28;20055;-63
2021/03/08 03:39:19;;;;;;;31.60;15.02;;;;;;;-2.66;81.24;97023.38;5062517;28;20059;-63
2021/03/08 03:42:03;;;;;;;36.22;17.13;;;;;;;-1.93;80.40;97108.81;5063913;28;20052;-64
2021/03/08 03:44:48;;;;;;;38.83;17.17;;;;;;;-1.89;80.25;97114.47;5063904;28;20067;-64
2021/03/08 03:47:33;;;;;;;41.55;19.30;;;;;;;-1.91;80.69;97101.19;5062674;28;20097;-64
2021/03/08 03:50:20;;;;;;;31.05;14.57;;;;;;;-2.72;81.37;96964.91;5062914;28;20101;-65
2021/03/08 03:53:06;;;;;;;32.38;14.68;;;;;;;-2.29;80.86;97101.38;5064000;28;20098;-64
2021/03/08 03:55:50;;;;;;;31.42;14.98;;;;;;;-3.37;82.46;96952.00;5063905;28;20046;-64
2021/03/08 03:58:41;;;;;;;36.25;17.10;;;;;;;-2.34;81.95;97096.00;5063479;28;20047;-64
2021/03/08 04:01:35;;;;;;;41.08;19.70;;;;;;;-3.38;81.33;96907.06;5064073;28;20046;-64
2021/03/08 04:04:50;;;;;;;40.88;20.27;;;;;;;-2.14;81.62;97096.56;5062673;28;20389;-64
2021/03/08 04:07:39;;;;;;;59.58;23.10;;;;;;;-2.14;81.27;97090.34;5062909;28;20537;-64
2021/03/08 04:10:28;;;;;;;55.72;22.30;;;;;;;-3.03;81.74;96979.84;5064418;28;20466;-64
2021/03/08 04:13:14;;;;;;;84.50;32.20;;;;;;;-2.17;82.63;97102.59;5063746;28;20112;-65
2021/03/08 04:15:59;;;;;;;56.38;26.13;;;;;;;-2.34;82.12;97058.81;5063611;28;20063;-64
2021/03/08 04:18:49;;;;;;;87.35;32.95;;;;;;;-2.69;81.66;97006.88;5062359;28;20100;-64
2021/03/08 04:21:39;;;;;;;73.20;25.25;;;;;;;-2.12;82.36;97091.66;5062203;28;20583;-63
2021/03/08 04:24:24;;;;;;;104.88;30.77;;;;;;;-2.26;81.98;97076.38;5063655;28;20051;-65
2021/03/08 04:27:11;;;;;;;79.90;29.25;;;;;;;-2.19;82.67;97191.56;5062432;28;20506;-64
2021/03/08 04:29:57;;;;;;;85.93;36.25;;;;;;;-2.69;83.40;97029.38;5082036;28;20047;-64
2021/03/08 04:32:42;;;;;;;75.60;30.90;;;;;;;-2.23;82.95;97082.00;5083435;28;20462;-63
2021/03/08 04:35:30;;;;;;;74.57;25.48;;;;;;;-3.60;82.96;96882.34;5082080;28;20160;-63
2021/03/08 04:38:15;;;;;;;68.82;23.17;;;;;;;-2.88;83.30;97008.69;5082287;28;20096;-63
2021/03/08 04:41:00;;;;;;;57.95;22.30;;;;;;;-2.27;81.91;97097.25;5083846;28;20074;-63
2021/03/08 04:43:44;;;;;;;51.47;19.65;;;;;;;-2.61;82.08;97057.75;5083730;28;20082;-62
2021/03/08 04:46:30;;;;;;;50.35;22.80;;;;;;;-2.27;81.85;97086.41;5083138;28;20421;-63
2021/03/08 04:49:17;;;;;;;50.67;22.15;;;;;;;-2.25;81.50;97091.53;5084404;28;20105;-63
2021/03/08 04:52:02;;;;;;;45.40;21.50;;;;;;;-2.77;80.40;97027.28;5086266;28;20039;-64
2021/03/08 04:54:47;;;;;;;80.15;43.38;;;;;;;-2.19;80.53;97096.63;5086235;28;20500;-62
2021/03/08 04:57:33;;;;;;;48.92;25.23;;;;;;;-2.27;81.56;97102.69;5087611;28;20166;-62
2021/03/08 05:00:19;;;;;;;46.63;24.33;;;;;;;-3.45;81.74;96890.34;5087402;28;20066;-63
2021/03/08 05:03:04;;;;;;;53.50;24.50;;;;;;;-2.79;82.88;97013.22;5087392;28;20046;-62
2021/03/08 05:05:50;;;;;;;58.88;29.45;;;;;;;-1.98;82.10;97106.16;5085869;28;20528;-63
2021/03/08 05:08:35;;;;;;;52.63;25.52;;;;;;;-2.20;81.00;97057.03;5087183;28;20081;-63
2021/03/08 05:11:20;;;;;;;50.83;23.90;;;;;;;-5.51;81.39;96557.00;5086007;28;20128;-63
2021/03/08 05:14:07;;;;;;;44.92;21.00;;;;;;;-2.04;82.68;97099.16;5086816;28;20611;-64
2021/03/08 05:16:53;;;;;;;45.30;22.58;;;;;;;-1.81;80.71;97122.78;5085440;28;20843;-64
2021/03/08 05:19:40;;;;;;;108.80;41.75;;;;;;;-1.72;80.72;97101.22;5086934;28;20429;-64
2021/03/08 05:22:25;;;;;;;109.45;45.83;;;;;;;-1.59;80.24;97104.06;5086033;28;20965;-62
2021/03/08 05:25:11;;;;;;;79.82;36.70;;;;;;;-1.39;78.12;97104.88;5087065;28;20047;-62
2021/03/08 05:27:56;;;;;;;93.32;38.95;;;;;;;-3.65;76.79;96744.41;5084961;28;20062;-62
2021/03/08 05:30:42;;;;;;;77.28;37.97;;;;;;;-1.23;77.53;97111.72;5065442;28;20413;-63
2021/03/08 05:33:29;;;;;;;88.18;40.70;;;;;;;-1.08;76.99;97114.19;5065315;28;20116;-63
2021/03/08 05:36:14;;;;;;;92.78;45.88;;;;;;;-1.00;76.93;97119.78;5066722;28;20494;-62
2021/03/08 05:39:00;;;;;;;113.88;54.15;;;;;;;-1.25;76.00;97056.84;5065096;28;20028;-63
2021/03/08 05:41:55;;;;;;;115.72;56.63;;;;;;;-0.74;75.50;97106.59;5065822;28;20097;-62
2021/03/08 05:45:00;;;;;;;130.40;62.58;;;;;;;-0.59;75.38;97103.63;5064827;28;20111;-63
2021/03/08 05:48:02;;;;;;;158.40;72.38;;;;;;;-0.35;74.05;97098.88;5064394;28;20577;-63
2021/03/08 05:51:01;;;;;;;175.13;83.20;;;;;;;-0.35;73.94;97112.47;5065834;28;20067;-65
2021/03/08 05:54:08;;;;;;;75.55;40.95;;;;;;;-0.27;73.97;97109.06;5014106;28;20503;-62
2021/03/08 05:57:30;;;;;;;107.05;49.25;;;;;;;-0.03;73.80;97120.56;5065739;28;20522;-62
2021/03/08 06:00:30;;;;;;;128.50;56.95;;;;;;;0.09;72.39;97095.56;5064143;28;20055;-64
2021/03/08 06:03:52;;;;;;;117.90;53.40;;;;;;;0.32;71.96;97192.66;5065969;28;20062;-63
2021/03/08 06:07:00;;;;;;;104.68;50.88;;;;;;;0.56;71.31;97115.03;5059556;28;20125;-64
2021/03/08 06:10:23;;;;;;;95.78;40.28;;;;;;;0.85;71.07;97110.06;5044096;28;20067;-62
2021/03/08 06:13:13;;;;;;;76.00;37.75;;;;;;;0.90;70.82;97120.81;5036877;28;20056;-63
2021/03/08 06:16:00;;;;;;;86.20;41.22;;;;;;;0.57;69.97;97037.63;5045602;28;20135;-63
2021/03/08 06:18:46;;;;;;;93.80;44.30;;;;;;;0.97;69.92;97052.22;5045279;28;20040;-63
2021/03/08 06:21:37;;;;;;;82.30;40.35;;;;;;;1.09;69.22;97061.47;5044981;28;20493;-63
2021/03/08 06:24:23;;;;;;;82.72;40.15;;;;;;;0.61;70.14;96992.31;5042743;28;20518;-66
2021/03/08 06:27:09;;;;;;;80.32;37.15;;;;;;;1.69;68.48;97107.50;5042131;28;20426;-63
2021/03/08 06:29:53;;;;;;;83.72;36.47;;;;;;;1.89;67.83;97109.69;5042004;28;20154;-65
2021/03/08 06:32:38;;;;;;;86.40;40.33;;;;;;;2.12;66.67;97108.53;5043719;28;20051;-65
2021/03/08 06:35:21;;;;;;;85.97;37.10;;;;;;;2.36;66.83;97107.00;5043344;28;20132;-63
2021/03/08 06:38:07;;;;;;;75.50;35.17;;;;;;;2.60;65.69;97112.88;5045173;28;20036;-64
2021/03/08 06:40:52;;;;;;;49.30;22.02;;;;;;;1.58;69.99;97111.59;5044075;28;20048;-64
2021/03/08 06:43:37;;;;;;;48.25;23.27;;;;;;;1.13;70.91;97010.66;5045453;28;20195;-64
2021/03/08 06:46:21;;;;;;;50.70;23.58;;;;;;;2.34;69.50;97097.53;5045039;28;20043;-62
2021/03/08 06:49:05;;;;;;;57.40;28.98;;;;;;;2.59;68.05;97066.72;5044885;28;20052;-63
2021/03/08 06:52:10;;;;;;;52.88;23.35;;;;;;;3.08;66.57;97097.19;5043799;28;20040;-63
2021/03/08 06:55:02;;;;;;;49.22;22.25;;;;;;;3.35;66.69;97101.53;5046093;28;20091;-63
2021/03/08 06:57:46;;;;;;;42.97;20.88;;;;;;;3.30;66.42;97055.19;5043974;28;20119;-65
2021/03/08 07:00:33;;;;;;;33.78;18.10;;;;;;;3.78;64.50;97096.81;5043263;28;20134;-64
2021/03/08 07:03:47;;;;;;;36.42;17.70;;;;;;;3.88;64.10;97076.50;5044983;28;20569;-64
2021/03/08 07:06:31;;;;;;;55.67;27.10;;;;;;;1.59;62.34;96704.59;5036161;28;20549;-63
2021/03/08 07:09:15;;;;;;;35.83;17.45;;;;;;;3.92;62.66;97094.69;5037616;28;20116;-61
2021/03/08 07:12:19;;;;;;;33.15;15.35;;;;;;;3.62;62.38;97040.94;5041191;28;20048;-64
2021/03/08 07:15:04;;;;;;;29.88;15.05;;;;;;;3.54;61.80;96978.78;5026542;28;20052;-64
2021/03/08 07:17:49;;;;;;;64.35;29.63;;;;;;;4.62;61.20;97089.44;5051491;28;20123;-67
2021/03/08 07:20:33;;;;;;;32.13;16.35;;;;;;;4.45;60.34;97004.50;5028655;28;20048;-66
2021/03/08 07:23:24;;;;;;;28.55;14.27;;;;;;;5.25;58.36;97087.56;5035675;28;20136;-63
2021/03/08 07:26:11;;;;;;;76.70;37.30;;;;;;;4.73;58.19;96982.06;5025027;28;20106;-69
2021/03/08 07:29:15;;;;;;;23.05;13.73;;;;;;;4.34;60.03;96995.06;5031808;28;20117;-69
2021/03/08 07:31:59;;;;;;;26.25;13.95;;;;;;;4.94;61.98;97073.41;5043624;28;20513;-70
2021/03/08 07:34:47;;;;;;;19.00;10.90;;;;;;;4.43;59.85;97061.63;5025377;28;20531;-64
2021/03/08 07:37:46;;;;;;;20.30;12.07;;;;;;;5.04;57.91;97048.31;5024898;28;20444;-67
2021/03/08 07:40:31;;;;;;;22.40;12.52;;;;;;;5.40;57.87;97040.25;5034284;28;20130;-66
2021/03/08 07:43:24;;;;;;;35.28;20.23;;;;;;;5.71;57.54;97046.09;5030649;28;20752;-68
2021/03/08 07:46:34;;;;;;;20.95;12.55;;;;;;;6.03;56.58;97046.09;5060704;28;20055;-66
2021/03/08 07:49:32;;;;;;;21.00;13.63;;;;;;;6.15;55.51;97040.63;5056206;28;20165;-65
2021/03/08 07:52:17;;;;;;;22.20;12.82;;;;;;;6.43;54.08;97034.44;5042772;28;20471;-68
2021/03/08 07:55:02;;;;;;;24.05;14.48;;;;;;;6.22;54.12;96946.56;5046346;28;20671;-65
2021/03/08 07:57:48;;;;;;;23.92;14.73;;;;;;;7.12;53.14;97035.06;5032470;28;20070;-67
2021/03/08 08:00:32;;;;;;;20.92;13.27;;;;;;;5.92;52.04;96846.22;5022375;28;20111;-65
2021/03/08 08:03:16;;;;;;;23.38;14.13;;;;;;;6.80;52.03;96959.75;5040131;28;20086;-69
2021/03/08 08:06:05;;;;;;;22.77;15.00;;;;;;;6.99;52.82;97026.03;5040919;28;20090;-67
2021/03/08 08:08:55;;;;;;;25.90;14.38;;;;;;;6.69;53.17;96977.09;5052973;28;20055;-66
2021/03/08 08:11:44;;;;;;;24.25;15.52;;;;;;;6.96;52.78;97020.41;5033223;28;20080;-67
2021/03/08 08:14:30;;;;;;;24.40;14.73;;;;;;;7.08;53.00;97023.91;5035263;28;20095;-67
2021/03/08 08:17:16;;;;;;;23.40;14.88;;;;;;;6.53;54.35;97015.53;5027096;28;20155;-68
2021/03/08 08:20:04;;;;;;;27.65;14.85;;;;;;;6.80;52.78;96979.03;5023426;28;20043;-66
2021/03/08 08:22:58;;;;;;;25.95;14.45;;;;;;;7.03;52.67;97004.91;5041330;28;20073;-69
2021/03/08 08:25:44;;;;;;;22.88;14.73;;;;;;;7.22;51.97;97007.81;5023364;28;20097;-67
2021/03/08 08:28:28;;;;;;;21.85;13.95;;;;;;;5.14;53.14;96708.31;5043253;28;20072;-69
2021/03/08 08:31:13;;;;;;;38.03;18.90;;;;;;;6.91;53.40;96999.41;5032774;28;20044;-67
2021/03/08 08:33:57;;;;;;;23.25;14.20;;;;;;;6.96;51.74;96949.63;5042277;28;20214;-67
2021/03/08 08:37:24;;;;;;;22.63;13.90;;;;;;;7.70;51.28;96999.34;5043031;28;20055;-69
2021/03/08 08:40:08;;;;;;;25.85;14.32;;;;;;;7.85;50.26;96991.44;5042557;28;20561;-67
2021/03/08 08:43:15;;;;;;;24.33;14.65;;;;;;;7.96;49.56;96973.22;5038953;28;20435;-68
2021/03/08 08:46:22;;;;;;;24.70;13.85;;;;;;;7.13;49.37;96861.19;5040524;28;20094;-68
2021/03/08 08:49:18;;;;;;;33.45;19.45;;;;;;;8.17;48.77;96949.72;5025042;28;20040;-68
2021/03/08 08:52:03;;;;;;;26.08;14.13;;;;;;;8.74;48.52;96974.00;5035480;28;20114;-70
2021/03/08 08:54:47;;;;;;;23.27;13.68;;;;;;;9.10;48.07;96968.09;5031306;28;20160;-70
2021/03/08 08:57:31;;;;;;;19.83;13.63;;;;;;;9.31;46.33;96981.56;5027864;28;20082;-70
2021/03/08 09:00:19;;;;;;;23.48;15.40;;;;;;;9.05;46.77;96918.66;5040818;28;20043;-69
2021/03/08 09:03:18;;;;;;;27.63;19.00;;;;;;;9.55;46.49;96964.69;5042286;28;20040;-69
2021/03/08 09:06:02;;;;;;;25.65;15.00;;;;;;;9.08;45.38;96891.09;5024250;28;20152;-69
2021/03/08 09:08:56;;;;;;;23.40;15.90;;;;;;;9.50;45.49;96907.69;5039153;28;20035;-70
2021/03/08 09:11:46;;;;;;;25.83;15.43;;;;;;;10.10;44.99;96948.31;5034511;28;20080;-69
2021/03/08 09:14:34;;;;;;;22.15;13.88;;;;;;;9.35;44.44;96813.81;5022668;28;20598;-69
2021/03/08 09:17:21;;;;;;;22.77;13.23;;;;;;;10.07;44.11;96949.06;5024538;28;20088;-68
2021/03/08 09:20:06;;;;;;;26.13;15.65;;;;;;;9.78;44.54;96935.06;5037070;28;20806;-66
2021/03/08 09:23:01;;;;;;;23.15;13.35;;;;;;;9.40;46.39;96938.72;5031830;28;20347;-68
2021/03/08 09:25:55;;;;;;;23.60;14.80;;;;;;;9.65;45.93;96937.22;5034647;28;20060;-70
2021/03/08 09:28:48;;;;;;;22.92;13.93;;;;;;;8.35;46.52;96768.06;5026010;28;20052;-68
2021/03/08 09:31:32;;;;;;;22.02;14.15;;;;;;;9.31;46.52;96938.13;5034389;28;20056;-67
2021/03/08 09:34:16;;;;;;;21.38;13.93;;;;;;;9.77;45.76;96928.75;5028878;28;20134;-69
2021/03/08 09:37:01;;;;;;;;;;;;;;;9.79;45.73;96940.25;5024540;28;20044;-70
2021/03/08 09:39:49;;;;;;;18.92;13.13;;;;;;;9.89;45.58;96925.81;5025866;28;19928;-67
2021/03/08 09:42:37;;;;;;;24.27;14.05;;;;;;;10.07;45.34;96938.00;5032280;28;20569;-67
2021/03/08 09:45:30;;;;;;;22.10;13.65;;;;;;;9.90;44.81;96872.06;5045572;28;20087;-68
2021/03/08 09:48:14;;;;;;;21.23;13.38;;;;;;;9.81;44.26;96841.09;5044369;28;20114;-68
2021/03/08 09:51:04;;;;;;;21.35;13.88;;;;;;;10.22;44.45;96900.28;5039517;28;20055;-69
2021/03/08 09:53:55;;;;;;;19.00;12.43;;;;;;;9.32;44.36;96757.31;5032175;28;20040;-68
2021/03/08 09:56:42;;;;;;;20.83;12.18;;;;;;;10.01;44.50;96877.75;5043931;28;20051;-70
2021/03/08 09:59:26;;;;;;;18.48;12.93;;;;;;;10.30;43.47;96844.66;5028125;28;20044;-68
2021/03/08 10:02:16;;;;;;;23.73;13.50;;;;;;;10.76;43.90;96908.22;5030026;28;20068;-69
2021/03/08 10:05:01;;;;;;;20.33;13.88;;;;;;;10.77;43.45;96907.03;5028897;28;20059;-68
2021/03/08 10:07:56;;;;;;;18.58;13.23;;;;;;;10.74;43.57;96900.28;5029076;28;20082;-67
2021/03/08 10:10:52;;;;;;;23.98;13.15;;;;;;;11.07;43.04;96893.97;5033250;28;20486;-68
2021/03/08 10:13:36;;;;;;;18.67;12.98;;;;;;;11.33;41.97;96893.91;5036509;28;20083;-68
2021/03/08 10:16:28;;;;;;;22.80;13.45;;;;;;;11.31;41.91;96871.31;5040313;28;20075;-68
2021/03/08 10:19:12;;;;;;;25.55;14.80;;;;;;;11.42;42.68;96861.94;5037743;28;20040;-67
2021/03/08 10:21:56;;;;;;;;;;;;;;;11.62;42.48;96884.69;5040095;28;20079;-71
2021/03/08 10:24:41;;;;;;;26.80;19.60;;;;;;;11.41;41.67;96801.31;5030283;28;20433;-66
2021/03/08 10:27:25;;;;;;;28.80;17.17;;;;;;;12.03;41.28;96855.78;5034059;28;20106;-67
2021/03/08 10:30:15;;;;;;;39.15;22.90;;;;;;;11.35;41.59;96728.72;5043592;28;20111;-69
2021/03/08 10:33:08;;;;;;;25.15;15.88;;;;;;;12.26;40.64;96836.94;5042038;28;20039;-69
2021/03/08 10:35:54;;;;;;;46.22;27.02;;;;;;;12.48;41.13;96863.69;5043581;28;20051;-69
2021/03/08 10:38:38;;;;;;;21.25;14.80;;;;;;;12.14;40.13;96798.34;5042963;28;20051;-69
2021/03/08 10:41:25;;;;;;;25.63;15.23;;;;;;;12.48;40.20;96799.78;5043465;28;20136;-69
2021/03/08 10:44:17;;;;;;;19.05;13.25;;;;;;;12.80;39.49;96834.09;5043902;28;20078;-70
2021/03/08 10:47:11;;;;;;;21.70;13.23;;;;;;;12.82;39.36;96837.25;5044068;28;20427;-70
2021/03/08 10:49:55;;;;;;;;;;;;;;;12.61;39.81;96837.16;5043860;28;20549;-69
2021/03/08 10:52:39;;;;;;;20.67;13.98;;;;;;;12.03;41.10;96800.25;5036377;28;19994;-66
2021/03/08 10:55:29;;;;;;;21.55;14.70;;;;;;;12.15;41.46;96830.50;5037756;28;20049;-68
2021/03/08 10:58:14;;;;;;;21.02;13.45;;;;;;;12.26;40.83;96870.25;5036219;28;20128;-68
2021/03/08 11:01:09;;;;;;;17.60;12.75;;;;;;;12.98;39.82;96818.28;5039737;28;20044;-68
2021/03/08 11:03:53;;;;;;;19.45;13.20;;;;;;;13.25;38.89;96800.13;5024817;28;20064;-70
2021/03/08 11:06:44;;;;;;;17.05;12.88;;;;;;;13.36;38.54;96783.44;5027845;28;20043;-69
2021/03/08 11:09:30;;;;;;;21.88;13.80;;;;;;;12.70;38.69;96662.53;5026315;28;20857;-71
2021/03/08 11:12:19;;;;;;;20.58;14.18;;;;;;;13.69;38.15;96781.13;5031829;28;20052;-71
2021/03/08 11:15:04;;;;;;;20.00;12.48;;;;;;;13.71;38.13;96777.94;5024620;28;20482;-69
2021/03/08 11:17:48;;;;;;;22.02;12.43;;;;;;;13.36;38.03;96709.13;5023141;28;20203;-69
2021/03/08 11:20:33;;;;;;;22.67;13.95;;;;;;;13.50;38.52;96772.34;5031080;28;20102;-69
2021/03/08 11:23:25;;;;;;;19.30;12.77;;;;;;;13.88;37.93;96770.78;5034657;28;20063;-67
2021/03/08 11:26:10;;;;;;;18.55;12.98;;;;;;;13.73;36.79;96702.38;5039699;28;20057;-69
2021/03/08 11:28:54;;;;;;;17.85;12.70;;;;;;;13.10;36.24;96589.91;5024150;28;20052;-73
2021/03/08 11:31:52;;;;;;;16.63;10.50;;;;;;;13.90;37.43;96754.47;5036861;28;20090;-68
2021/03/08 11:34:43;;;;;;;12.88;9.68;;;;;;;13.62;37.13;96752.50;5029208;28;20507;-68
2021/03/08 11:37:30;;;;;;;14.90;9.88;;;;;;;12.81;37.12;96618.88;5037526;28;20048;-69
2021/03/08 11:40:16;;;;;;;16.42;9.10;;;;;;;13.33;36.87;96734.97;5052833;28;20510;-66
2021/03/08 11:43:00;;;;;;;12.82;8.35;;;;;;;13.19;37.46;96734.94;5038152;28;20043;-64
2021/03/08 11:45:45;;;;;;;12.75;8.35;;;;;;;13.08;35.71;96674.94;5036685;28;20067;-67
2021/03/08 11:48:29;;;;;;;14.18;8.75;;;;;;;13.01;36.95;96725.00;5035410;28;20158;-64
2021/03/08 11:51:13;;;;;;;11.82;8.60;;;;;;;13.54;35.14;96723.06;5033592;28;20637;-62
2021/03/08 11:53:57;;;;;;;12.13;8.10;;;;;;;13.30;35.69;96666.22;5022859;28;20119;-64
2021/03/08 11:56:41;;;;;;;12.93;8.50;;;;;;;13.44;34.62;96657.88;5028412;28;20114;-71
2021/03/08 11:59:25;;;;;;;;;;;;;;;13.75;35.09;96713.91;5035878;28;20044;-67
2021/03/08 12:02:09;;;;;;;;;;;;;;;13.76;33.78;96704.34;5034131;28;19985;-65
2021/03/08 12:04:53;;;;;;;14.73;9.18;;;;;;;12.92;35.54;96700.31;5024041;28;20439;-66
2021/03/08 12:07:38;;;;;;;12.90;8.55;;;;;;;12.39;36.14;96618.78;5032225;28;20091;-70
2021/03/08 12:10:23;;;;;;;13.95;8.02;;;;;;;13.51;35.62;96696.81;5031766;28;20472;-67
2021/03/08 12:13:07;;;;;;;11.15;8.40;;;;;;;13.74;34.90;96687.28;5029771;28;20040;-66
2021/03/08 12:15:51;;;;;;;;;;;;;;;13.54;35.19;96696.03;5035231;28;20047;-67
2021/03/08 12:18:36;;;;;;;11.90;8.23;;;;;;;13.34;35.14;96660.66;5028217;28;19928;-69
2021/03/08 12:21:21;;;;;;;11.68;8.43;;;;;;;12.98;35.14;96578.38;5007835;28;20082;-67
2021/03/08 12:24:05;;;;;;;13.32;8.93;;;;;;;13.96;34.67;96677.69;5035729;28;20060;-68
2021/03/08 12:26:50;;;;;;;12.65;7.70;;;;;;;13.58;34.16;96677.34;5031243;28;20121;-70
2021/03/08 12:29:34;;;;;;;11.60;7.20;;;;;;;13.72;34.17;96672.97;5021959;28;20051;-65
2021/03/08 12:32:19;;;;;;;9.85;7.75;;;;;;;13.52;34.10;96658.66;5027350;28;20043;-70
2021/03/08 12:35:03;;;;;;;13.73;8.90;;;;;;;12.73;35.16;96516.44;5041080;28;20171;-70
2021/03/08 12:37:47;;;;;;;10.07;7.43;;;;;;;13.24;31.70;96559.34;5040531;28;20098;-66
2021/03/08 12:40:31;;;;;;;11.75;7.95;;;;;;;13.97;31.72;96640.28;5049944;28;20081;-64
2021/03/08 12:43:15;;;;;;;10.43;8.07;;;;;;;14.15;32.34;96652.16;5047859;28;20106;-69
2021/03/08 12:45:59;;;;;;;11.65;7.57;;;;;;;14.36;32.04;96646.53;5042334;28;20091;-68
2021/03/08 12:48:43;;;;;;;10.40;7.75;;;;;;;14.40;31.98;96641.78;5035499;28;20416;-68
2021/03/08 12:51:27;;;;;;;15.38;8.25;;;;;;;14.31;31.93;96652.53;5039264;28;20043;-72
2021/03/08 12:54:11;;;;;;;13.38;7.65;;;;;;;13.85;32.12;96590.63;5047940;28;20471;-68
2021/03/08 12:56:55;;;;;;;13.32;7.70;;;;;;;14.44;32.17;96648.91;5042895;28;20612;-68
2021/03/08 12:59:39;;;;;;;11.05;8.07;;;;;;;13.83;32.27;96604.13;5021706;28;20523;-68